Terminal Aerodrome Forecast
Issued by NWS

Home | Current Version | Previous Version | Text Only | Print | Product List | Glossary On
Versions: 1 2 3 4 5 6 7 8 9 10 11 12 13 14 15 16 17 18 19 20 21 22 23 24 25 26 27
000
FTUS43 KMKX 251120
TAFENW
TAF
KENW 251120Z 2512/2612 31006KT P6SM FEW250
     FM251700 32010KT P6SM FEW050
     FM252300 32007KT P6SM FEW060
     FM260200 00000KT P6SM SKC
     FM260900 VRB03KT 5SM BR SKC=

USA.gov is the U.S. government's official web portal to all federal, state and local government web resources and services.